Time;durP1;ratioP1;P1;durP2;ratioP2;P2;SDS_P1;SDS_P2;PMS_P1;PMS_P2;Temp;Humidity;BMP_temperature;BMP_pressure;BME280_temperature;BME280_humidity;BME280_pressure;Samples;Min_cycle;Max_cycle;Signal;HPM_P1;HPM_P2
2021/12/06 00:02:06;;;;;;;19.90;2.40;;;;;;;;;;5117543;27;20325;-36
2021/12/06 00:04:33;;;;;;;9.70;2.67;;;;;;;;;;5112748;27;20067;-37
2021/12/06 00:07:00;;;;;;;12.35;2.90;;;;;;;;;;5113356;28;20031;-37
2021/12/06 00:09:26;;;;;;;11.77;1.10;;;;;;;;;;5115546;28;20076;-37
2021/12/06 00:11:57;;;;;;;7.65;2.83;;;;;;;;;;5116204;28;20022;-36
2021/12/06 00:14:27;;;;;;;3.15;1.08;;;;;;;;;;5115191;28;20055;-36
2021/12/06 00:16:52;;;;;;;7.10;2.15;;;;;;;;;;5116915;28;20046;-36
2021/12/06 00:19:18;;;;;;;5.80;1.83;;;;;;;;;;5113789;28;20518;-36
2021/12/06 00:21:43;;;;;;;3.13;1.63;;;;;;;;;;5122095;28;20467;-36
2021/12/06 00:24:08;;;;;;;11.75;2.53;;;;;;;;;;5119036;28;20019;-35
2021/12/06 00:26:34;;;;;;;12.57;3.55;;;;;;;;;;5120585;28;20011;-36
2021/12/06 00:28:59;;;;;;;8.13;2.78;;;;;;;;;;5119918;27;20387;-36
2021/12/06 00:31:27;;;;;;;3.67;1.63;;;;;;;;;;5125178;27;20079;-36
2021/12/06 00:33:58;;;;;;;14.23;3.13;;;;;;;;;;5123263;27;20054;-36
2021/12/06 00:36:28;;;;;;;13.10;3.30;;;;;;;;;;5119964;27;20035;-36
2021/12/06 00:38:54;;;;;;;13.68;3.90;;;;;;;;;;5120423;27;20059;-36
2021/12/06 00:41:19;;;;;;;16.33;3.17;;;;;;;;;;5122296;27;20062;-36
2021/12/06 00:43:44;;;;;;;13.40;3.72;;;;;;;;;;5117139;27;20111;-36
2021/12/06 00:46:09;;;;;;;7.25;2.00;;;;;;;;;;5119578;27;20103;-36
2021/12/06 00:48:35;;;;;;;13.02;2.33;;;;;;;;;;5119072;27;20122;-36
2021/12/06 00:51:00;;;;;;;13.13;2.30;;;;;;;;;;5122227;27;20027;-37
2021/12/06 00:53:25;;;;;;;9.55;1.77;;;;;;;;;;5122368;27;20435;-36
2021/12/06 00:55:51;;;;;;;5.03;1.95;;;;;;;;;;5121310;27;20011;-36
2021/12/06 00:58:16;;;;;;;16.35;2.83;;;;;;;;;;5122762;27;20086;-36
2021/12/06 01:00:43;;;;;;;14.73;2.63;;;;;;;;;;5123093;27;20047;-38
2021/12/06 01:03:10;;;;;;;6.22;1.02;;;;;;;;;;5120661;27;20023;-37
2021/12/06 01:05:36;;;;;;;7.03;1.58;;;;;;;;;;5120594;27;20057;-36
2021/12/06 01:08:02;;;;;;;6.93;1.38;;;;;;;;;;5118395;27;20484;-36
2021/12/06 01:10:27;;;;;;;6.55;2.70;;;;;;;;;;5121522;27;20021;-36
2021/12/06 01:12:55;;;;;;;9.65;3.05;;;;;;;;;;5120015;27;20094;-37
2021/12/06 01:15:20;;;;;;;7.95;2.33;;;;;;;;;;5122250;27;20035;-36
2021/12/06 01:17:46;;;;;;;8.13;1.48;;;;;;;;;;5121192;27;20428;-36
2021/12/06 01:20:14;;;;;;;5.93;1.83;;;;;;;;;;5121528;27;20412;-37
2021/12/06 01:22:51;;;;;;;10.52;3.30;;;;;;;;;;5123264;27;20038;-36
2021/12/06 01:25:31;;;;;;;13.80;1.65;;;;;;;;;;5117972;27;20126;-37
2021/12/06 01:40:59;;;;;;;3.33;0.90;;;;;;;;;;5117902;27;20185;-36
2021/12/06 01:43:24;;;;;;;5.18;1.77;;;;;;;;;;5116378;27;20106;-37
2021/12/06 01:45:49;;;;;;;5.38;3.03;;;;;;;;;;5117515;27;20023;-37
2021/12/06 01:48:15;;;;;;;3.97;3.33;;;;;;;;;;5116778;27;20856;-37
2021/12/06 01:50:40;;;;;;;8.98;2.40;;;;;;;;;;5119089;27;20023;-37
2021/12/06 01:53:06;;;;;;;7.53;4.00;;;;;;;;;;5121698;27;20669;-38
2021/12/06 01:55:33;;;;;;;8.23;2.42;;;;;;;;;;5116393;27;20016;-37
2021/12/06 01:57:59;;;;;;;16.42;1.98;;;;;;;;;;5121002;27;20543;-37
2021/12/06 02:00:33;;;;;;;3.90;1.25;;;;;;;;;;5118686;27;20011;-37
2021/12/06 02:02:59;;;;;;;8.70;2.42;;;;;;;;;;5118836;27;20027;-37
2021/12/06 02:05:24;;;;;;;4.60;1.42;;;;;;;;;;5116136;27;20077;-37
2021/12/06 02:07:50;;;;;;;3.05;0.68;;;;;;;;;;5116172;27;20796;-37
2021/12/06 02:10:16;;;;;;;10.85;2.35;;;;;;;;;;5122768;27;20027;-37
2021/12/06 02:12:43;;;;;;;7.30;1.48;;;;;;;;;;5116217;27;20024;-37
2021/12/06 02:15:26;;;;;;;5.95;2.22;;;;;;;;;;5116293;27;20019;-37
2021/12/06 02:18:04;;;;;;;6.28;1.17;;;;;;;;;;5113951;27;20043;-37
2021/12/06 02:20:30;;;;;;;7.75;1.05;;;;;;;;;;5119009;27;20546;-37
2021/12/06 02:22:56;;;;;;;6.00;3.13;;;;;;;;;;5121242;27;20069;-37
2021/12/06 02:25:22;;;;;;;9.63;2.28;;;;;;;;;;5113442;27;20027;-36
2021/12/06 02:27:48;;;;;;;20.23;2.92;;;;;;;;;;5112906;27;20101;-36
2021/12/06 02:30:14;;;;;;;3.35;1.60;;;;;;;;;;5118753;27;20116;-36
2021/12/06 02:32:40;;;;;;;6.15;1.65;;;;;;;;;;5120914;27;20107;-36
2021/12/06 02:35:09;;;;;;;13.68;2.38;;;;;;;;;;5120526;27;20094;-36
2021/12/06 02:37:35;;;;;;;9.93;2.28;;;;;;;;;;5117790;27;20060;-37
2021/12/06 02:40:01;;;;;;;6.18;1.80;;;;;;;;;;5117743;27;20719;-37
2021/12/06 02:42:26;;;;;;;13.27;2.60;;;;;;;;;;5098375;28;20856;-37
2021/12/06 02:44:52;;;;;;;5.63;2.30;;;;;;;;;;5115498;27;20131;-36
2021/12/06 02:47:18;;;;;;;6.43;2.55;;;;;;;;;;5115010;27;20019;-37
2021/12/06 02:49:46;;;;;;;4.38;2.08;;;;;;;;;;5117593;27;20455;-36
2021/12/06 02:52:12;;;;;;;8.57;2.22;;;;;;;;;;5110854;27;20590;-36
2021/12/06 02:54:41;;;;;;;2.90;1.27;;;;;;;;;;5116439;27;20035;-36
2021/12/06 02:59:42;;;;;;;8.48;2.53;;;;;;;;;;5115635;27;20018;-37
2021/12/06 03:02:10;;;;;;;8.68;2.78;;;;;;;;;;5113950;27;20019;-37
2021/12/06 03:04:35;;;;;;;11.70;1.92;;;;;;;;;;5118233;27;20577;-36
2021/12/06 03:07:02;;;;;;;7.38;1.95;;;;;;;;;;5116983;27;20084;-37
2021/12/06 03:09:29;;;;;;;3.78;1.05;;;;;;;;;;5111160;27;20539;-36
2021/12/06 03:12:02;;;;;;;15.40;1.90;;;;;;;;;;5115996;27;20012;-36
2021/12/06 03:14:31;;;;;;;7.00;1.95;;;;;;;;;;5117879;27;20373;-37
2021/12/06 03:16:57;;;;;;;8.00;1.33;;;;;;;;;;5110734;27;20031;-36
2021/12/06 03:19:22;;;;;;;1.67;1.05;;;;;;;;;;5117815;27;20024;-37
2021/12/06 03:21:48;;;;;;;6.95;1.73;;;;;;;;;;5115494;27;20373;-37
2021/12/06 03:24:13;;;;;;;6.65;1.83;;;;;;;;;;5111504;27;20018;-36
2021/12/06 03:26:39;;;;;;;7.90;2.25;;;;;;;;;;5117214;27;20020;-37
2021/12/06 03:29:05;;;;;;;9.23;1.52;;;;;;;;;;5116972;27;20026;-36
2021/12/06 03:31:31;;;;;;;3.95;1.30;;;;;;;;;;5114870;27;20030;-36
2021/12/06 03:33:57;;;;;;;7.60;1.75;;;;;;;;;;5120352;27;20501;-37
2021/12/06 03:36:23;;;;;;;8.88;2.33;;;;;;;;;;5117093;27;20432;-36
2021/12/06 03:38:49;;;;;;;3.70;1.25;;;;;;;;;;5113563;27;20024;-36
2021/12/06 03:41:15;;;;;;;10.10;2.03;;;;;;;;;;5120381;27;20026;-36
2021/12/06 03:43:41;;;;;;;7.45;1.95;;;;;;;;;;5113514;27;20119;-36
2021/12/06 03:46:07;;;;;;;4.93;1.92;;;;;;;;;;5115831;27;20160;-36
2021/12/06 03:48:33;;;;;;;15.57;1.67;;;;;;;;;;5113106;27;20024;-36
2021/12/06 03:50:59;;;;;;;3.70;0.52;;;;;;;;;;5116895;27;20011;-36
2021/12/06 03:53:25;;;;;;;12.13;2.13;;;;;;;;;;5118686;27;20023;-38
2021/12/06 03:55:50;;;;;;;17.42;1.50;;;;;;;;;;5114985;27;20380;-36
2021/12/06 03:58:15;;;;;;;7.43;1.55;;;;;;;;;;5117500;27;20023;-37
2021/12/06 04:00:40;;;;;;;5.25;1.08;;;;;;;;;;5112482;28;20142;-36
2021/12/06 04:03:07;;;;;;;4.80;1.38;;;;;;;;;;5113371;28;20444;-40
2021/12/06 04:05:32;;;;;;;3.42;0.77;;;;;;;;;;5115482;27;20035;-36
2021/12/06 04:07:58;;;;;;;11.85;1.85;;;;;;;;;;5113359;28;20045;-36
2021/12/06 04:10:26;;;;;;;14.80;1.45;;;;;;;;;;5120362;28;20023;-36
2021/12/06 04:12:51;;;;;;;2.17;0.77;;;;;;;;;;5114816;28;20023;-36
2021/12/06 04:15:17;;;;;;;6.75;1.30;;;;;;;;;;5112617;28;20487;-36
2021/12/06 04:17:42;;;;;;;9.63;2.65;;;;;;;;;;5118626;28;20056;-37
2021/12/06 04:20:10;;;;;;;2.60;1.27;;;;;;;;;;5114529;28;20071;-36
2021/12/06 04:22:36;;;;;;;9.10;1.40;;;;;;;;;;5118741;28;20113;-36
2021/12/06 04:25:02;;;;;;;1.60;0.70;;;;;;;;;;5115778;28;20114;-36
2021/12/06 04:27:28;;;;;;;8.57;1.90;;;;;;;;;;5114642;28;20027;-36
2021/12/06 04:29:53;;;;;;;4.07;1.88;;;;;;;;;;5112693;28;20480;-36
2021/12/06 04:32:19;;;;;;;2.83;0.88;;;;;;;;;;5118006;28;20543;-36
2021/12/06 04:34:45;;;;;;;14.68;1.40;;;;;;;;;;5113577;28;20016;-36
2021/12/06 04:37:11;;;;;;;6.32;1.73;;;;;;;;;;5113995;28;20072;-36
2021/12/06 04:39:37;;;;;;;8.18;1.20;;;;;;;;;;5114251;28;20015;-36
2021/12/06 04:42:02;;;;;;;3.47;0.90;;;;;;;;;;5115931;28;20015;-36
2021/12/06 04:44:28;;;;;;;6.15;1.40;;;;;;;;;;5115010;28;20008;-36
2021/12/06 04:46:53;;;;;;;6.57;1.48;;;;;;;;;;5113093;28;20072;-36
2021/12/06 04:49:19;;;;;;;2.58;0.93;;;;;;;;;;5117515;28;20064;-36
2021/12/06 04:51:46;;;;;;;5.50;1.13;;;;;;;;;;5115493;28;20121;-36
2021/12/06 04:54:12;;;;;;;3.33;1.63;;;;;;;;;;5108620;28;20026;-36
2021/12/06 04:56:42;;;;;;;5.35;1.45;;;;;;;;;;5115550;28;20023;-36
2021/12/06 04:59:16;;;;;;;5.82;2.10;;;;;;;;;;5116548;28;20015;-36
2021/12/06 05:01:42;;;;;;;14.88;3.05;;;;;;;;;;5114854;28;20118;-37
2021/12/06 05:04:18;;;;;;;3.55;2.25;;;;;;;;;;5115535;28;20106;-36
2021/12/06 05:06:45;;;;;;;2.15;0.95;;;;;;;;;;5115385;28;20015;-36
2021/12/06 05:09:16;;;;;;;11.70;1.33;;;;;;;;;;5111762;28;20054;-36
2021/12/06 05:11:42;;;;;;;10.48;2.70;;;;;;;;;;5116859;28;20023;-36
2021/12/06 05:14:08;;;;;;;4.18;0.82;;;;;;;;;;5100955;28;20492;-36
2021/12/06 05:16:35;;;;;;;3.42;1.55;;;;;;;;;;5118973;27;20118;-36
2021/12/06 05:19:00;;;;;;;11.25;2.75;;;;;;;;;;5119327;27;20130;-36
2021/12/06 05:21:26;;;;;;;7.38;1.88;;;;;;;;;;5116300;27;20023;-36
2021/12/06 05:23:51;;;;;;;2.97;1.35;;;;;;;;;;5117862;27;20496;-35
2021/12/06 05:26:16;;;;;;;7.32;2.90;;;;;;;;;;5120303;27;20023;-36
2021/12/06 05:28:44;;;;;;;7.20;1.52;;;;;;;;;;5118501;27;20031;-36
2021/12/06 05:31:15;;;;;;;3.63;1.95;;;;;;;;;;5112613;27;20110;-36
2021/12/06 05:33:46;;;;;;;5.65;2.03;;;;;;;;;;5117384;27;20019;-36
2021/12/06 05:36:11;;;;;;;3.70;1.90;;;;;;;;;;5114741;27;20554;-36
2021/12/06 05:38:37;;;;;;;3.33;1.25;;;;;;;;;;5116557;27;20069;-35
2021/12/06 05:41:02;;;;;;;8.55;2.08;;;;;;;;;;5122560;27;20024;-36
2021/12/06 05:43:28;;;;;;;4.85;1.85;;;;;;;;;;5115839;27;20028;-36
2021/12/06 05:45:54;;;;;;;8.07;1.48;;;;;;;;;;5118155;27;20048;-36
2021/12/06 05:48:19;;;;;;;1.95;0.93;;;;;;;;;;5118299;27;20035;-36
2021/12/06 05:50:46;;;;;;;9.63;1.20;;;;;;;;;;5118491;27;20019;-37
2021/12/06 05:53:11;;;;;;;13.25;2.97;;;;;;;;;;5117291;27;20019;-36
2021/12/06 05:55:36;;;;;;;5.35;1.85;;;;;;;;;;5116823;27;20476;-36
2021/12/06 05:58:03;;;;;;;5.75;2.03;;;;;;;;;;5121230;27;20088;-36
2021/12/06 06:00:31;;;;;;;5.38;1.08;;;;;;;;;;5116632;27;20281;-36
2021/12/06 06:02:57;;;;;;;3.72;1.25;;;;;;;;;;5116683;27;20686;-36
2021/12/06 06:05:23;;;;;;;3.38;1.55;;;;;;;;;;5117257;27;20110;-36
2021/12/06 06:07:48;;;;;;;6.45;2.75;;;;;;;;;;5115818;27;20542;-36
2021/12/06 06:10:15;;;;;;;2.40;1.20;;;;;;;;;;5115136;27;20042;-36
2021/12/06 06:12:40;;;;;;;6.22;2.08;;;;;;;;;;5114430;27;20023;-36
2021/12/06 06:15:06;;;;;;;2.78;1.88;;;;;;;;;;5115322;27;20565;-36
2021/12/06 06:17:39;;;;;;;2.75;1.45;;;;;;;;;;5120318;27;20508;-36
2021/12/06 06:20:05;;;;;;;1.80;0.73;;;;;;;;;;5115068;27;20036;-36
2021/12/06 06:22:31;;;;;;;6.07;2.92;;;;;;;;;;5115165;27;20073;-36
2021/12/06 06:24:56;;;;;;;9.93;1.45;;;;;;;;;;5117409;27;20032;-37
2021/12/06 06:27:21;;;;;;;3.83;1.00;;;;;;;;;;5117479;27;20474;-36
2021/12/06 06:29:46;;;;;;;11.88;1.67;;;;;;;;;;5118304;27;20019;-36
2021/12/06 06:32:12;;;;;;;13.63;3.47;;;;;;;;;;5114466;27;20117;-36
2021/12/06 06:34:37;;;;;;;4.53;1.20;;;;;;;;;;5116470;27;20429;-36
2021/12/06 06:37:03;;;;;;;10.82;4.85;;;;;;;;;;5116306;27;20069;-36
2021/12/06 06:39:28;;;;;;;5.57;2.53;;;;;;;;;;5092898;27;20559;-36
2021/12/06 06:41:53;;;;;;;21.63;4.47;;;;;;;;;;5113185;27;20019;-36
2021/12/06 06:44:20;;;;;;;1.92;1.02;;;;;;;;;;5118056;27;20472;-36
2021/12/06 06:46:45;;;;;;;4.97;1.30;;;;;;;;;;5112814;27;20347;-36
2021/12/06 06:49:12;;;;;;;13.45;2.47;;;;;;;;;;5117413;27;20543;-36
2021/12/06 06:51:37;;;;;;;3.17;1.42;;;;;;;;;;5114519;27;20046;-36
2021/12/06 06:54:03;;;;;;;6.10;2.38;;;;;;;;;;5116635;27;20281;-36
2021/12/06 06:56:28;;;;;;;5.18;1.55;;;;;;;;;;5119865;27;20393;-36
2021/12/06 06:58:54;;;;;;;10.35;1.98;;;;;;;;;;5124644;27;20117;-36
2021/12/06 07:01:19;;;;;;;8.48;1.67;;;;;;;;;;5114586;27;20723;-36
2021/12/06 07:03:45;;;;;;;6.15;2.28;;;;;;;;;;5116319;27;20027;-36
2021/12/06 07:06:10;;;;;;;12.02;1.95;;;;;;;;;;5116603;27;20447;-36
2021/12/06 07:08:35;;;;;;;2.75;1.67;;;;;;;;;;5113793;27;20020;-37
2021/12/06 07:11:01;;;;;;;5.97;1.73;;;;;;;;;;5116561;27;20030;-36
2021/12/06 07:13:27;;;;;;;5.35;1.23;;;;;;;;;;5117697;27;20080;-36
2021/12/06 07:15:53;;;;;;;12.40;2.20;;;;;;;;;;5115340;27;20070;-36
2021/12/06 07:18:19;;;;;;;1.67;0.82;;;;;;;;;;5117237;27;20116;-36
2021/12/06 07:20:44;;;;;;;12.93;1.95;;;;;;;;;;5115019;27;20027;-36
2021/12/06 07:23:09;;;;;;;15.48;4.13;;;;;;;;;;5117139;27;20026;-36
2021/12/06 07:25:35;;;;;;;5.70;0.70;;;;;;;;;;5111357;27;20685;-36
2021/12/06 07:28:03;;;;;;;7.28;2.03;;;;;;;;;;5114090;27;20360;-36
2021/12/06 07:30:28;;;;;;;8.48;1.90;;;;;;;;;;5112043;27;20085;-36
2021/12/06 07:32:54;;;;;;;11.57;3.33;;;;;;;;;;5118625;27;20464;-37
2021/12/06 07:35:21;;;;;;;16.58;3.58;;;;;;;;;;5115692;27;20543;-36
2021/12/06 07:37:46;;;;;;;8.85;2.28;;;;;;;;;;5114555;27;20031;-36
2021/12/06 07:40:13;;;;;;;4.05;1.83;;;;;;;;;;5115198;27;20031;-36
2021/12/06 07:42:38;;;;;;;12.15;1.88;;;;;;;;;;5114403;27;20031;-36
2021/12/06 07:45:05;;;;;;;5.60;1.55;;;;;;;;;;5115009;27;20015;-36
2021/12/06 07:47:30;;;;;;;6.43;2.08;;;;;;;;;;5114091;27;20110;-35
2021/12/06 07:49:56;;;;;;;7.45;1.75;;;;;;;;;;5115492;27;20127;-36
2021/12/06 07:52:21;;;;;;;2.65;1.90;;;;;;;;;;5114108;27;20063;-36
2021/12/06 07:54:46;;;;;;;2.85;1.45;;;;;;;;;;5116968;27;20028;-36
2021/12/06 07:57:12;;;;;;;5.13;1.73;;;;;;;;;;5117379;27;20028;-36
2021/12/06 07:59:38;;;;;;;4.35;2.17;;;;;;;;;;5115623;27;20015;-37
2021/12/06 08:02:04;;;;;;;5.38;1.80;;;;;;;;;;5115017;27;20428;-35
2021/12/06 08:04:30;;;;;;;7.43;2.28;;;;;;;;;;5115919;27;20374;-36
2021/12/06 08:06:55;;;;;;;8.07;2.75;;;;;;;;;;5118071;27;20039;-36
2021/12/06 08:09:20;;;;;;;4.20;1.60;;;;;;;;;;5115036;28;20023;-35
2021/12/06 08:11:46;;;;;;;8.52;2.22;;;;;;;;;;5112586;28;20087;-36
2021/12/06 08:14:11;;;;;;;6.80;2.47;;;;;;;;;;5115044;28;20031;-36
2021/12/06 08:16:40;;;;;;;3.72;1.00;;;;;;;;;;5110916;28;20046;-36
2021/12/06 08:19:05;;;;;;;2.17;1.65;;;;;;;;;;5111059;28;20077;-36
2021/12/06 08:21:31;;;;;;;14.02;3.20;;;;;;;;;;5116903;28;20483;-36
2021/12/06 08:23:57;;;;;;;8.55;3.28;;;;;;;;;;5113437;28;20084;-37
2021/12/06 08:26:23;;;;;;;2.95;1.70;;;;;;;;;;5108452;28;20111;-36
2021/12/06 08:28:50;;;;;;;16.52;3.88;;;;;;;;;;5110293;28;20023;-36
2021/12/06 08:31:18;;;;;;;9.93;3.35;;;;;;;;;;5106018;28;20475;-36
2021/12/06 08:33:43;;;;;;;13.23;2.35;;;;;;;;;;5100300;28;20026;-36
2021/12/06 08:36:09;;;;;;;11.82;3.63;;;;;;;;;;5105715;28;20023;-36
2021/12/06 08:38:35;;;;;;;11.52;1.88;;;;;;;;;;5104545;28;20095;-37
2021/12/06 08:41:02;;;;;;;2.13;1.20;;;;;;;;;;5101687;28;20080;-40
2021/12/06 08:43:28;;;;;;;11.07;2.90;;;;;;;;;;5103598;28;20023;-36
2021/12/06 08:45:53;;;;;;;9.18;2.05;;;;;;;;;;5103717;28;20043;-43
2021/12/06 08:48:19;;;;;;;9.15;1.95;;;;;;;;;;5103978;28;20084;-36
2021/12/06 08:50:44;;;;;;;14.45;2.42;;;;;;;;;;5106328;27;20105;-37
2021/12/06 08:53:10;;;;;;;6.22;2.17;;;;;;;;;;5110975;27;20015;-36
2021/12/06 08:55:35;;;;;;;11.93;4.07;;;;;;;;;;5105058;27;20100;-36
2021/12/06 08:58:01;;;;;;;5.90;1.80;;;;;;;;;;5090342;27;20556;-38
2021/12/06 09:00:28;;;;;;;7.05;2.35;;;;;;;;;;5102960;27;20036;-38
2021/12/06 09:02:53;;;;;;;23.50;3.95;;;;;;;;;;5103319;27;20554;-54
2021/12/06 09:05:19;;;;;;;10.73;3.05;;;;;;;;;;5104720;27;20023;-52
2021/12/06 09:07:45;;;;;;;12.25;3.25;;;;;;;;;;5107066;27;20085;-46
2021/12/06 09:10:12;;;;;;;15.00;4.97;;;;;;;;;;5108349;27;20026;-42
2021/12/06 09:12:38;;;;;;;17.95;5.50;;;;;;;;;;5106520;27;20303;-44
2021/12/06 09:15:06;;;;;;;5.22;2.90;;;;;;;;;;5103768;27;20536;-43
2021/12/06 09:17:31;;;;;;;5.55;2.30;;;;;;;;;;5104003;27;20047;-44
2021/12/06 09:19:57;;;;;;;14.32;2.83;;;;;;;;;;5105438;27;20515;-48
2021/12/06 09:22:22;;;;;;;20.25;4.10;;;;;;;;;;5110124;27;20024;-48
2021/12/06 09:24:49;;;;;;;10.18;5.38;;;;;;;;;;5109383;27;20031;-49
2021/12/06 09:27:15;;;;;;;6.13;2.70;;;;;;;;;;5106487;27;20031;-50
2021/12/06 09:29:40;;;;;;;14.32;6.10;;;;;;;;;;5107767;27;20034;-52
2021/12/06 09:32:07;;;;;;;10.70;5.05;;;;;;;;;;5110660;27;20423;-49
2021/12/06 09:34:33;;;;;;;18.77;7.07;;;;;;;;;;5100583;27;20027;-53
2021/12/06 09:36:59;;;;;;;13.30;5.43;;;;;;;;;;5106850;27;20023;-54
2021/12/06 09:39:24;;;;;;;17.67;4.47;;;;;;;;;;5107825;27;20078;-50
2021/12/06 09:41:50;;;;;;;8.18;3.95;;;;;;;;;;5105704;27;20993;-48
2021/12/06 09:44:16;;;;;;;16.20;6.20;;;;;;;;;;5105244;27;20052;-50
2021/12/06 09:46:42;;;;;;;7.72;3.60;;;;;;;;;;5105320;27;20035;-51
2021/12/06 09:49:12;;;;;;;27.13;7.28;;;;;;;;;;5105966;27;20160;-53
2021/12/06 09:51:38;;;;;;;13.45;4.20;;;;;;;;;;5106641;27;20027;-53
2021/12/06 09:54:04;;;;;;;10.25;4.15;;;;;;;;;;5103291;27;20034;-53
2021/12/06 09:56:31;;;;;;;15.57;4.63;;;;;;;;;;5108993;27;20492;-51
2021/12/06 09:58:57;;;;;;;8.82;3.17;;;;;;;;;;5105873;27;20023;-55
2021/12/06 10:01:25;;;;;;;14.70;4.43;;;;;;;;;;5109136;27;20093;-53
2021/12/06 10:03:53;;;;;;;19.02;4.40;;;;;;;;;;5114814;27;20494;-50
2021/12/06 10:06:18;;;;;;;3.78;2.45;;;;;;;;;;5117875;27;20542;-52
2021/12/06 10:08:46;;;;;;;9.57;4.70;;;;;;;;;;5121451;27;20027;-49
2021/12/06 10:11:12;;;;;;;19.10;5.43;;;;;;;;;;5116859;27;20011;-46
2021/12/06 10:13:39;;;;;;;19.67;4.25;;;;;;;;;;5116802;27;20106;-47
2021/12/06 10:16:05;;;;;;;16.02;6.32;;;;;;;;;;5114730;27;20497;-50
2021/12/06 10:18:30;;;;;;;7.78;2.83;;;;;;;;;;5117001;27;20055;-48
2021/12/06 10:20:55;;;;;;;5.95;3.13;;;;;;;;;;5117335;27;20032;-47
2021/12/06 10:23:21;;;;;;;14.20;3.47;;;;;;;;;;5114271;27;20464;-51
2021/12/06 10:25:49;;;;;;;12.32;3.75;;;;;;;;;;5114934;27;20027;-51
2021/12/06 10:28:16;;;;;;;12.15;3.80;;;;;;;;;;5112872;27;20142;-49
2021/12/06 10:30:47;;;;;;;12.00;2.33;;;;;;;;;;5115741;27;20248;-51
2021/12/06 10:33:13;;;;;;;13.68;5.72;;;;;;;;;;5114054;27;20015;-51
2021/12/06 10:35:40;;;;;;;9.02;4.82;;;;;;;;;;5112862;27;20019;-51
2021/12/06 10:38:05;;;;;;;9.55;4.22;;;;;;;;;;5112670;27;20030;-50
2021/12/06 10:40:32;;;;;;;14.20;3.60;;;;;;;;;;5117840;27;20023;-53
2021/12/06 10:42:58;;;;;;;17.75;5.25;;;;;;;;;;5119732;27;20050;-50
2021/12/06 10:45:34;;;;;;;9.68;5.65;;;;;;;;;;5116663;27;20567;-49
2021/12/06 10:48:04;;;;;;;9.75;3.10;;;;;;;;;;5118492;27;20023;-51
2021/12/06 10:50:29;;;;;;;15.65;3.13;;;;;;;;;;5119933;27;20016;-53
2021/12/06 10:52:56;;;;;;;10.05;3.08;;;;;;;;;;5120479;27;20023;-53
2021/12/06 10:55:23;;;;;;;3.83;1.60;;;;;;;;;;5115903;27;20682;-54
2021/12/06 10:57:50;;;;;;;16.30;8.13;;;;;;;;;;5114878;27;20020;-52
2021/12/06 11:00:34;;;;;;;6.47;3.38;;;;;;;;;;5115781;27;20024;-49
2021/12/06 11:03:01;;;;;;;15.38;3.90;;;;;;;;;;5116978;27;20051;-54
2021/12/06 11:05:28;;;;;;;6.70;3.05;;;;;;;;;;5117263;27;20132;-53
2021/12/06 11:08:23;;;;;;;5.35;1.77;;;;;;;;;;5113636;27;20011;-50
2021/12/06 11:10:50;;;;;;;4.95;1.58;;;;;;;;;;5092194;27;20093;-51
2021/12/06 11:13:15;;;;;;;17.15;2.33;;;;;;;;;;5113778;27;20551;-54
2021/12/06 11:15:59;;;;;;;3.83;1.90;;;;;;;;;;5116884;27;20023;-50
2021/12/06 11:18:36;;;;;;;2.15;1.17;;;;;;;;;;5113021;27;20075;-53
2021/12/06 11:21:03;;;;;;;2.25;0.95;;;;;;;;;;5113566;27;20023;-49
2021/12/06 11:23:29;;;;;;;2.35;1.88;;;;;;;;;;5114982;27;20084;-50
2021/12/06 11:26:04;;;;;;;12.68;3.38;;;;;;;;;;5114846;27;20419;-52
2021/12/06 11:28:31;;;;;;;9.48;3.65;;;;;;;;;;5114703;27;20058;-51
2021/12/06 11:31:01;;;;;;;3.42;1.48;;;;;;;;;;5115168;27;20019;-52
2021/12/06 11:33:31;;;;;;;3.22;1.08;;;;;;;;;;5108466;27;20092;-51
2021/12/06 11:35:57;;;;;;;6.47;3.33;;;;;;;;;;5112101;27;20026;-51
2021/12/06 11:38:22;;;;;;;1.73;0.85;;;;;;;;;;5109965;27;20019;-51
2021/12/06 11:40:48;;;;;;;4.65;2.50;;;;;;;;;;5114347;27;20034;-49
2021/12/06 11:43:17;;;;;;;8.25;3.53;;;;;;;;;;5112570;27;20098;-52
2021/12/06 11:45:48;;;;;;;26.40;3.30;;;;;;;;;;5114099;27;20080;-48
2021/12/06 11:48:15;;;;;;;7.60;1.38;;;;;;;;;;5112194;27;20030;-51
2021/12/06 11:50:51;;;;;;;6.05;1.40;;;;;;;;;;5111898;27;20313;-49
2021/12/06 11:53:18;;;;;;;5.78;2.03;;;;;;;;;;5109535;27;20027;-50
2021/12/06 11:55:45;;;;;;;9.27;2.70;;;;;;;;;;5115970;27;20027;-53
2021/12/06 11:58:27;;;;;;;12.85;5.60;;;;;;;;;;5114720;27;20024;-51
2021/12/06 12:01:22;;;;;;;6.20;3.15;;;;;;;;;;5112551;27;20068;-52
2021/12/06 12:03:49;;;;;;;7.53;3.35;;;;;;;;;;5101320;27;20032;-47
2021/12/06 12:06:29;;;;;;;4.78;2.33;;;;;;;;;;5110923;27;20135;-53
2021/12/06 12:09:08;;;;;;;9.68;3.45;;;;;;;;;;5115896;27;20027;-51
2021/12/06 12:11:52;;;;;;;5.68;2.00;;;;;;;;;;5112506;27;20023;-50
2021/12/06 12:14:22;;;;;;;5.63;1.98;;;;;;;;;;5113405;28;20045;-48
2021/12/06 12:16:47;;;;;;;1.60;0.97;;;;;;;;;;5112413;28;20028;-51
2021/12/06 12:19:13;;;;;;;5.07;2.13;;;;;;;;;;5111261;28;20446;-53
2021/12/06 12:21:38;;;;;;;8.40;2.55;;;;;;;;;;5111971;28;20077;-52
2021/12/06 12:24:03;;;;;;;2.80;1.48;;;;;;;;;;5112383;27;20488;-50
2021/12/06 12:26:29;;;;;;;7.13;2.13;;;;;;;;;;5116321;27;20019;-53
2021/12/06 12:29:12;;;;;;;12.32;3.97;;;;;;;;;;5114901;27;20128;-52
2021/12/06 12:31:38;;;;;;;15.65;5.15;;;;;;;;;;5124062;27;20029;-52
2021/12/06 12:34:03;;;;;;;8.68;3.53;;;;;;;;;;5113289;27;20526;-51
2021/12/06 12:36:29;;;;;;;11.65;5.55;;;;;;;;;;5116453;27;20103;-48
2021/12/06 12:38:56;;;;;;;6.97;4.13;;;;;;;;;;5118955;27;20027;-53
2021/12/06 12:41:22;;;;;;;17.52;10.95;;;;;;;;;;5119048;27;20114;-53
2021/12/06 12:43:49;;;;;;;8.68;3.70;;;;;;;;;;5116640;27;20030;-52
2021/12/06 12:46:17;;;;;;;10.90;2.42;;;;;;;;;;5118473;27;20024;-50
2021/12/06 12:48:53;;;;;;;8.63;4.70;;;;;;;;;;5112970;27;20159;-51
2021/12/06 12:51:21;;;;;;;13.85;5.63;;;;;;;;;;5112913;27;20027;-51
2021/12/06 12:53:56;;;;;;;16.17;4.07;;;;;;;;;;5100963;27;20492;-49
2021/12/06 12:56:47;;;;;;;5.38;3.05;;;;;;;;;;5114521;27;20012;-48
2021/12/06 12:59:16;;;;;;;9.50;3.50;;;;;;;;;;5109463;27;20036;-47
2021/12/06 13:01:45;;;;;;;18.95;3.92;;;;;;;;;;5117653;27;20015;-48
2021/12/06 13:04:10;;;;;;;11.80;5.25;;;;;;;;;;5117778;27;20023;-50
2021/12/06 13:06:37;;;;;;;5.55;2.42;;;;;;;;;;5112408;27;20027;-50
2021/12/06 13:09:07;;;;;;;3.47;2.08;;;;;;;;;;5110335;27;20042;-52
2021/12/06 13:11:42;;;;;;;8.55;4.88;;;;;;;;;;5113112;27;20039;-51
2021/12/06 13:14:24;;;;;;;5.00;4.10;;;;;;;;;;5111551;27;20099;-51
2021/12/06 13:16:58;;;;;;;;;;;;;;;;;;5122132;27;20027;-51
2021/12/06 13:19:35;;;;;;;5.95;2.55;;;;;;;;;;5121219;27;19987;-51
2021/12/06 13:22:09;;;;;;;16.42;2.72;;;;;;;;;;5123866;27;20511;-50
2021/12/06 13:24:39;;;;;;;9.13;3.10;;;;;;;;;;5119677;27;20076;-50
2021/12/06 13:27:08;;;;;;;10.60;6.22;;;;;;;;;;5111254;27;20020;-50
2021/12/06 13:29:36;;;;;;;6.43;2.80;;;;;;;;;;5114994;27;20796;-52
2021/12/06 13:32:21;;;;;;;12.00;3.95;;;;;;;;;;5114057;27;20333;-48
2021/12/06 13:34:47;;;;;;;6.32;4.28;;;;;;;;;;5112624;27;20024;-50
2021/12/06 13:37:12;;;;;;;12.45;4.90;;;;;;;;;;5108468;27;20076;-49
2021/12/06 13:39:42;;;;;;;13.70;3.88;;;;;;;;;;5113504;27;20429;-51
2021/12/06 13:42:09;;;;;;;3.47;2.65;;;;;;;;;;5115898;27;20081;-50
2021/12/06 13:44:37;;;;;;;9.10;3.17;;;;;;;;;;5116448;27;20034;-45
2021/12/06 13:47:07;;;;;;;7.07;3.03;;;;;;;;;;5116891;27;20491;-49
2021/12/06 13:49:32;;;;;;;10.13;7.35;;;;;;;;;;5114267;27;20051;-48
2021/12/06 13:52:02;;;;;;;21.67;7.90;;;;;;;;;;5115988;27;20935;-46
2021/12/06 13:54:27;;;;;;;8.02;6.60;;;;;;;;;;5115714;27;20035;-45
2021/12/06 13:56:55;;;;;;;8.27;7.15;;;;;;;;;;5111721;27;20016;-46
2021/12/06 13:59:24;;;;;;;5.57;3.83;;;;;;;;;;5112590;27;20076;-48
2021/12/06 14:01:49;;;;;;;14.65;4.30;;;;;;;;;;5114183;27;20038;-46
2021/12/06 14:04:16;;;;;;;11.43;3.85;;;;;;;;;;5110851;27;20020;-45
2021/12/06 14:06:43;;;;;;;11.50;3.22;;;;;;;;;;5114579;27;20051;-46
2021/12/06 14:09:08;;;;;;;15.07;6.90;;;;;;;;;;5096628;27;20035;-48
2021/12/06 14:11:34;;;;;;;11.32;4.53;;;;;;;;;;5113860;27;20028;-46
2021/12/06 14:13:59;;;;;;;10.52;6.03;;;;;;;;;;5114970;27;20094;-45
2021/12/06 14:16:29;;;;;;;8.90;3.40;;;;;;;;;;5117223;27;20026;-46
2021/12/06 14:18:55;;;;;;;10.60;2.75;;;;;;;;;;5116783;27;20050;-45
2021/12/06 14:21:20;;;;;;;7.32;3.67;;;;;;;;;;5116958;27;20022;-47
2021/12/06 14:23:47;;;;;;;6.43;3.67;;;;;;;;;;5114594;27;20163;-51
2021/12/06 14:26:12;;;;;;;9.23;4.05;;;;;;;;;;5114872;27;20053;-50
2021/12/06 14:28:43;;;;;;;18.00;5.80;;;;;;;;;;5113501;27;20024;-47
2021/12/06 14:31:08;;;;;;;10.13;3.63;;;;;;;;;;5107663;27;20020;-49
2021/12/06 14:33:34;;;;;;;15.77;5.05;;;;;;;;;;5116145;27;20034;-45
2021/12/06 14:36:00;;;;;;;10.52;4.22;;;;;;;;;;5115308;27;20033;-50
2021/12/06 14:38:27;;;;;;;11.35;3.83;;;;;;;;;;5115949;27;20063;-49
2021/12/06 14:40:59;;;;;;;7.47;3.05;;;;;;;;;;5116013;27;20024;-46
2021/12/06 14:43:25;;;;;;;6.13;4.03;;;;;;;;;;5116068;27;20015;-51
2021/12/06 14:45:57;;;;;;;8.10;4.32;;;;;;;;;;5114613;27;20284;-48
2021/12/06 14:48:26;;;;;;;13.48;6.45;;;;;;;;;;5111815;27;20011;-44
2021/12/06 14:53:33;;;;;;;21.95;4.25;;;;;;;;;;5120940;27;20016;-45
2021/12/06 14:56:12;;;;;;;10.25;4.82;;;;;;;;;;5110838;27;20032;-49
2021/12/06 14:58:39;;;;;;;16.02;9.95;;;;;;;;;;5112929;27;20129;-48